Flight Track Log - Related Links

Times and Time Zones

All times are in EDT time to prevent confusion due to time zone crossing. See the N52712 flight status page for this flight to view local times or setup timezone preferences in your user account.

Time Position Orientation Groundspeed Altitude Reporting Facility
EDT Latitude Longitude Course Direction KTS MPH feet Rate Location/Type
Tue 02:44:02 PM 42.4667 -71.3000 360° North 65 75 800  Level KA90
Tue 02:44:20 PM 42.4667 -71.3000 160° South 79 91 1,000 692 Climbing KA90
Tue 02:45:20 PM 42.4333 -71.2833 160° South 95 109 1,700 700 Climbing KA90
Tue 02:46:20 PM 42.4167 -71.2667 144° Southeast 95 109 2,400 700 Climbing KA90
Tue 02:47:20 PM 42.3833 -71.2667 180° South 95 109 3,100 729 Climbing KA90
Tue 02:48:07 PM 42.3714 -71.2556 146° Southeast 100 115 3,700 716 Climbing Boston Center
Tue 02:49:09 PM 42.3458 -71.2333 147° Southeast 107 123 4,400 683 Climbing Boston Center
Tue 02:50:10 PM 42.3175 -71.2114 150° Southeast 111 128 5,100 492 Climbing Boston Center
Tue 02:51:11 PM 42.2878 -71.1864 148° Southeast 125 144 5,400 148 Climbing Boston Center
Tue 02:52:12 PM 42.2525 -71.1581 149° Southeast 143 165 5,400 49 Level Boston Center
Tue 02:53:13 PM 42.2150 -71.1322 153° Southeast 141 162 5,500 49 Climbing Boston Center
Tue 02:54:15 PM 42.1803 -71.1081 153° Southeast 140 161 5,500  Level Boston Center
Tue 02:55:16 PM 42.1506 -71.0689 136° Southeast 147 169 5,500 47 Level Boston Center
Tue 02:56:22 PM 42.1167 -71.0167 131° Southeast 146 168 5,600 95 Climbing KA90
Tue 02:57:22 PM 42.0833 -70.9833 143° Southeast 152 175 5,700 -48 Climbing KA90
Tue 02:58:27 PM 42.0500 -70.9500 143° Southeast 140 161 5,500 -150 Descending KA90
Tue 02:59:22 PM 42.0333 -70.9167 124° Southeast 136 157 5,400  Descending KA90
Tue 03:01:23 PM 41.9744 -70.8358 134° Southeast 160 184 5,500 33 Climbing Boston Center
Tue 03:02:24 PM 41.9450 -70.7925 132° Southeast 159 183 5,500  Level Boston Center
Tue 03:03:25 PM 41.9192 -70.7483 128° Southeast 154 177 5,500  Level Boston Center
Tue 03:04:26 PM 41.8933 -70.7056 129° Southeast 150 173 5,500  Level Boston Center
Tue 03:05:28 PM 41.8675 -70.6625 129° Southeast 149 171 5,500  Level Boston Center
Tue 03:06:29 PM 41.8356 -70.6119 130° Southeast 146 168 5,500  Level Boston Center
Tue 03:07:30 PM 41.8100 -70.5714 130° Southeast 144 166 5,500 -49 Level Boston Center
Tue 03:08:31 PM 41.7833 -70.5289 130° Southeast 150 173 5,400 -295 Descending Boston Center
Tue 03:09:32 PM 41.7561 -70.4872 131° Southeast 150 173 4,900 -683 Descending Boston Center
Tue 03:10:34 PM 41.7319 -70.4403 125° Southeast 152 175 4,000 -1,024 Descending Boston Center
Tue 03:11:35 PM 41.7144 -70.3950 117° Southeast 146 168 2,800 -1,082 Descending Boston Center
Tue 03:12:36 PM 41.7025 -70.3519 110° East 135 155 1,800 -836 Descending Boston Center
Tue 03:13:37 PM 41.6914 -70.3131 111° Southeast 124 143 1,100 -393 Descending Boston Center
Tue 03:14:38 PM 41.6775 -70.2747 116° Southeast 117 135 1,000 -246 Descending Boston Center
Tue 03:15:39 PM 41.6814 -70.2572 73° East 99 114 600 -390 Descending Boston Center
Tue 03:16:41 PM 41.6722 -70.2706 227° Southwest 79 91 200 49 Descending Boston Center
Tue 03:17:42 PM 41.6619 -70.2867 230° Southwest 60 69 700 590 Climbing Boston Center
Tue 03:18:43 PM 41.6639 -70.3117 276° West 73 84 1,400 787 Climbing Boston Center
Tue 03:19:44 PM 41.6719 -70.3367 293° West 75 86 2,300 738 Climbing Boston Center
Tue 03:20:45 PM 41.6767 -70.3606 285° West 72 83 2,900 634 Climbing Boston Center
Tue 03:21:47 PM 41.6697 -70.3856 250° West 72 83 3,600 585 Climbing Boston Center
Tue 03:22:48 PM 41.6653 -70.4142 258° West 71 82 4,100 492 Climbing Boston Center

Login

Don't have an account? Register now (free) for customized features, flight alerts, and more!